createdAt,value
2023-05-15T00:00:13.683Z,73.00
2023-05-15T00:02:40.687Z,73.00
2023-05-15T00:05:08.583Z,73.00
2023-05-15T00:07:36.444Z,73.10
2023-05-15T00:10:03.493Z,73.20
2023-05-15T00:12:30.312Z,73.10
2023-05-15T00:14:57.186Z,73.20
2023-05-15T00:17:24.021Z,73.40
2023-05-15T00:19:51.083Z,73.40
2023-05-15T00:22:17.824Z,73.50
2023-05-15T00:24:44.738Z,73.60
2023-05-15T00:27:11.618Z,73.70
2023-05-15T00:29:38.445Z,73.70
2023-05-15T00:32:08.251Z,73.80
2023-05-15T00:34:34.975Z,73.90
2023-05-15T00:37:01.808Z,73.90
2023-05-15T00:39:28.661Z,73.90
2023-05-15T00:41:55.938Z,74.00
2023-05-15T00:44:23.694Z,74.00
2023-05-15T00:46:51.949Z,74.10
2023-05-15T00:49:20.366Z,74.20
2023-05-15T00:51:47.295Z,74.20
2023-05-15T00:54:14.187Z,74.20
2023-05-15T00:56:43.147Z,74.30
2023-05-15T00:59:11.107Z,74.40
2023-05-15T01:01:37.987Z,74.50
2023-05-15T01:04:05.318Z,74.30
2023-05-15T01:06:32.820Z,74.30
2023-05-15T01:09:04.245Z,74.50
2023-05-15T01:11:36.426Z,74.40
2023-05-15T01:14:07.509Z,74.60
2023-05-15T01:16:35.245Z,74.80
2023-05-15T01:19:03.210Z,74.60
2023-05-15T01:21:33.073Z,74.70
2023-05-15T01:24:34.610Z,75.30
2023-05-15T01:27:20.507Z,74.70
2023-05-15T01:29:53.267Z,74.70
2023-05-15T01:32:27.712Z,74.80
2023-05-15T01:35:12.767Z,75.00
2023-05-15T01:37:51.344Z,75.00
2023-05-15T01:40:20.693Z,75.10
2023-05-15T01:42:56.355Z,75.10
2023-05-15T01:45:25.516Z,75.10
2023-05-15T01:47:54.586Z,75.20
2023-05-15T01:50:22.201Z,75.20
2023-05-15T01:52:54.251Z,75.30
2023-05-15T01:55:23.911Z,75.50
2023-05-15T01:57:52.160Z,75.50
2023-05-15T02:00:19.451Z,75.60
2023-05-15T02:02:47.808Z,75.50
2023-05-15T02:05:15.047Z,75.60
2023-05-15T02:07:46.180Z,75.70
2023-05-15T02:10:13.808Z,75.90
2023-05-15T02:12:42.301Z,75.90
2023-05-15T02:15:10.846Z,76.00
2023-05-15T02:17:38.258Z,76.00
2023-05-15T02:20:08.850Z,76.10
2023-05-15T02:22:36.279Z,76.10
2023-05-15T02:25:03.112Z,76.30
2023-05-15T02:27:40.603Z,76.20
2023-05-15T02:30:38.270Z,76.40
2023-05-15T02:33:28.595Z,76.10
2023-05-15T02:36:20.603Z,77.00
2023-05-15T02:38:49.814Z,76.20
2023-05-15T02:41:17.272Z,76.30
2023-05-15T02:43:45.986Z,76.40
2023-05-15T02:46:14.836Z,76.30
2023-05-15T02:48:43.434Z,76.50
2023-05-15T02:51:11.028Z,76.70
2023-05-15T02:53:42.288Z,76.80
2023-05-15T02:56:09.430Z,76.80
2023-05-15T02:58:36.927Z,77.00
2023-05-15T03:01:04.703Z,77.10
2023-05-15T03:03:34.195Z,77.20
2023-05-15T03:06:01.151Z,77.20
2023-05-15T03:08:27.926Z,77.30
2023-05-15T03:10:54.827Z,77.40
2023-05-15T03:13:23.979Z,77.60
2023-05-15T03:15:50.744Z,77.60
2023-05-15T03:18:20.552Z,77.60
2023-05-15T03:20:52.830Z,77.60
2023-05-15T03:23:19.737Z,77.80
2023-05-15T03:25:46.662Z,77.60
2023-05-15T03:28:19.362Z,77.70
2023-05-15T03:30:46.096Z,77.80
2023-05-15T03:33:12.839Z,77.80
2023-05-15T03:35:39.646Z,77.80
2023-05-15T03:38:06.500Z,77.90
2023-05-15T03:40:33.334Z,78.10
2023-05-15T03:43:00.142Z,78.10
2023-05-15T03:45:27.109Z,78.20
2023-05-15T03:47:54.384Z,78.20
2023-05-15T03:50:21.602Z,79.00
2023-05-15T03:52:48.464Z,78.20
2023-05-15T03:55:15.287Z,78.30
2023-05-15T03:57:42.229Z,78.40
2023-05-15T04:00:10.984Z,78.40
2023-05-15T04:02:38.302Z,78.60
2023-05-15T04:05:06.245Z,78.60
2023-05-15T04:07:34.094Z,78.50
2023-05-15T04:10:01.598Z,79.40
2023-05-15T04:12:33.998Z,78.60
2023-05-15T04:15:21.707Z,78.90
2023-05-15T04:17:50.661Z,78.70
2023-05-15T04:20:20.640Z,78.80
2023-05-15T04:22:47.954Z,78.90
2023-05-15T04:25:15.169Z,78.80
2023-05-15T04:27:43.714Z,78.90
2023-05-15T04:30:11.921Z,79.00
2023-05-15T04:32:40.324Z,79.10
2023-05-15T04:35:10.350Z,79.20
2023-05-15T04:37:37.894Z,79.20
2023-05-15T04:40:08.253Z,79.10
2023-05-15T04:42:37.174Z,79.10
2023-05-15T04:45:06.926Z,79.20
2023-05-15T04:47:33.977Z,79.20
2023-05-15T04:50:01.169Z,79.20
2023-05-15T04:52:28.015Z,79.30
2023-05-15T04:54:55.888Z,79.30
2023-05-15T04:57:23.080Z,79.30
2023-05-15T04:59:50.124Z,79.30
2023-05-15T05:02:20.135Z,79.40
2023-05-15T05:04:46.921Z,79.40
2023-05-15T05:07:13.754Z,79.20
2023-05-15T05:09:43.513Z,79.20
2023-05-15T05:12:10.527Z,79.20
2023-05-15T05:14:37.632Z,80.10
2023-05-15T05:17:04.696Z,79.20
2023-05-15T05:19:31.452Z,79.30
2023-05-15T05:22:01.448Z,79.40
2023-05-15T05:24:28.620Z,79.40
2023-05-15T05:26:58.208Z,79.40
2023-05-15T05:29:25.360Z,79.40
2023-05-15T05:31:52.429Z,79.50
2023-05-15T05:34:20.035Z,79.50
2023-05-15T05:36:46.767Z,79.60
2023-05-15T05:39:13.766Z,79.50
2023-05-15T05:41:42.957Z,79.30
2023-05-15T05:44:09.956Z,79.30
2023-05-15T05:46:37.041Z,79.40
2023-05-15T05:49:03.967Z,79.40
2023-05-15T05:51:31.751Z,80.10
2023-05-15T05:53:58.638Z,79.10
2023-05-15T05:56:26.565Z,79.00
2023-05-15T05:58:53.667Z,79.00
2023-05-15T06:01:21.064Z,79.10
2023-05-15T06:03:48.078Z,79.10
2023-05-15T06:06:15.119Z,79.10
2023-05-15T06:08:41.836Z,79.10
2023-05-15T06:11:08.678Z,78.90
2023-05-15T06:13:35.950Z,78.80
2023-05-15T06:16:02.806Z,78.40
2023-05-15T06:18:29.678Z,78.10
2023-05-15T06:20:58.809Z,77.80
2023-05-15T06:23:26.651Z,77.80
2023-05-15T06:25:53.498Z,77.90
2023-05-15T06:28:20.383Z,77.80
2023-05-15T06:30:47.295Z,78.50
2023-05-15T06:33:14.195Z,77.50
2023-05-15T06:35:41.447Z,77.50
2023-05-15T06:38:11.360Z,77.80
2023-05-15T06:40:41.094Z,77.80
2023-05-15T06:43:07.875Z,77.50
2023-05-15T06:45:34.717Z,77.40
2023-05-15T06:48:01.989Z,77.20
2023-05-15T06:50:28.984Z,77.40
2023-05-15T06:52:55.955Z,77.80
2023-05-15T06:55:22.733Z,77.90
2023-05-15T06:57:49.411Z,77.10
2023-05-15T07:00:16.666Z,76.20
2023-05-15T07:02:43.998Z,75.80
2023-05-15T07:05:11.592Z,76.40
2023-05-15T07:07:38.537Z,76.30
2023-05-15T07:10:06.180Z,75.60
2023-05-15T07:12:34.161Z,74.80
2023-05-15T07:15:04.109Z,74.20
2023-05-15T07:17:33.488Z,73.90
2023-05-15T07:20:00.349Z,73.90
2023-05-15T07:22:31.441Z,73.80
2023-05-15T07:24:59.504Z,74.20
2023-05-15T07:27:26.810Z,74.20
2023-05-15T07:29:54.099Z,74.30
2023-05-15T07:32:21.386Z,73.00
2023-05-15T07:34:48.139Z,72.60
2023-05-15T07:37:16.783Z,72.50
2023-05-15T07:39:43.909Z,72.10
2023-05-15T07:42:10.884Z,71.70
2023-05-15T07:44:37.721Z,71.50
2023-05-15T07:47:04.756Z,71.10
2023-05-15T07:49:31.791Z,71.00
2023-05-15T07:51:58.581Z,70.70
2023-05-15T07:54:30.084Z,70.20
2023-05-15T07:56:57.514Z,69.70
2023-05-15T07:59:24.821Z,69.00
2023-05-15T08:01:51.710Z,68.30
2023-05-15T08:04:18.560Z,67.70
2023-05-15T08:06:45.447Z,68.40
2023-05-15T08:09:12.968Z,69.30
2023-05-15T08:11:39.971Z,69.30
2023-05-15T08:14:06.875Z,68.60
2023-05-15T08:16:33.952Z,68.00
2023-05-15T08:19:04.765Z,67.20
2023-05-15T08:21:32.419Z,66.80
2023-05-15T08:24:00.281Z,67.00
2023-05-15T08:26:30.913Z,66.20
2023-05-15T08:28:57.797Z,64.90
2023-05-15T08:31:24.496Z,65.10
2023-05-15T08:33:51.341Z,65.10
2023-05-15T08:36:19.803Z,64.70
2023-05-15T08:38:46.760Z,64.20
2023-05-15T08:41:40.060Z,64.30
2023-05-15T08:44:09.519Z,64.80
2023-05-15T08:46:36.716Z,65.20
2023-05-15T08:49:15.808Z,65.50
2023-05-15T08:51:42.978Z,65.40
2023-05-15T08:54:11.603Z,65.40
2023-05-15T08:56:38.856Z,65.40
2023-05-15T08:59:06.521Z,65.40
2023-05-15T09:01:34.146Z,65.10
2023-05-15T09:04:01.136Z,65.30
2023-05-15T09:06:28.660Z,65.60
2023-05-15T09:08:57.046Z,65.50
2023-05-15T09:11:28.350Z,65.20
2023-05-15T09:14:01.067Z,65.10
2023-05-15T09:16:28.198Z,64.50
2023-05-15T09:18:55.028Z,64.60
2023-05-15T09:21:24.767Z,64.80
2023-05-15T09:23:52.468Z,64.50
2023-05-15T09:26:19.419Z,64.70
2023-05-15T09:28:46.602Z,64.80
2023-05-15T09:31:14.156Z,65.10
2023-05-15T09:33:42.563Z,65.50
2023-05-15T09:36:10.440Z,65.60
2023-05-15T09:38:48.538Z,65.80
2023-05-15T09:41:24.368Z,66.00
2023-05-15T09:43:54.440Z,66.10
2023-05-15T09:46:24.813Z,66.30
2023-05-15T09:48:55.705Z,66.90
2023-05-15T09:51:22.829Z,66.90
2023-05-15T09:53:51.635Z,67.10
2023-05-15T09:56:18.730Z,67.10
2023-05-15T09:58:56.444Z,66.80
2023-05-15T10:01:25.136Z,66.50
2023-05-15T10:03:59.738Z,66.80
2023-05-15T10:06:26.953Z,67.00
2023-05-15T10:08:54.580Z,67.10
2023-05-15T10:11:23.797Z,67.30
2023-05-15T10:13:54.844Z,67.60
2023-05-15T10:16:22.670Z,67.70
2023-05-15T10:18:52.715Z,68.00
2023-05-15T10:21:23.027Z,68.00
2023-05-15T10:23:51.060Z,68.00
2023-05-15T10:26:42.032Z,67.90
2023-05-15T10:29:18.209Z,67.90
2023-05-15T10:31:46.250Z,68.00
2023-05-15T10:34:14.080Z,68.10
2023-05-15T10:36:43.301Z,68.20
2023-05-15T10:39:10.233Z,68.30
2023-05-15T10:41:38.633Z,68.50
2023-05-15T10:44:05.737Z,68.50
2023-05-15T10:46:35.459Z,68.70
2023-05-15T10:49:02.561Z,69.00
2023-05-15T10:51:31.757Z,69.90
2023-05-15T10:54:01.314Z,69.10
2023-05-15T10:56:32.635Z,69.00
2023-05-15T10:59:08.540Z,69.10
2023-05-15T11:01:40.841Z,69.30
2023-05-15T11:04:16.321Z,69.70
2023-05-15T11:06:45.323Z,69.80
2023-05-15T11:09:34.706Z,69.80
2023-05-15T11:12:03.281Z,70.50
2023-05-15T11:14:36.601Z,69.80
2023-05-15T11:17:05.615Z,69.70
2023-05-15T11:19:34.717Z,69.70
2023-05-15T11:22:08.247Z,69.70
2023-05-15T11:25:12.519Z,70.60
2023-05-15T11:27:46.591Z,69.70
2023-05-15T11:30:18.273Z,70.00
2023-05-15T11:32:51.645Z,70.10
2023-05-15T11:35:50.743Z,70.10
2023-05-15T11:38:27.221Z,70.00
2023-05-15T11:41:00.214Z,70.20
2023-05-15T11:43:31.658Z,70.40
2023-05-15T11:46:12.958Z,70.20
2023-05-15T11:48:44.408Z,70.10
2023-05-15T11:51:19.372Z,70.10
2023-05-15T11:53:47.240Z,70.30
2023-05-15T11:56:25.144Z,70.30
2023-05-15T11:58:57.580Z,70.50
2023-05-15T12:01:24.406Z,70.90
2023-05-15T12:03:52.196Z,70.90
2023-05-15T12:06:19.674Z,70.80
2023-05-15T12:08:56.226Z,71.00
2023-05-15T12:11:24.421Z,71.20
2023-05-15T12:13:55.194Z,71.10
2023-05-15T12:16:36.013Z,71.30
2023-05-15T12:19:06.144Z,71.50
2023-05-15T12:21:33.905Z,71.50
2023-05-15T12:26:32.313Z,71.50
2023-05-15T12:28:59.283Z,71.60
2023-05-15T12:31:27.660Z,71.80
2023-05-15T12:33:54.559Z,72.00
2023-05-15T12:36:22.016Z,72.00
2023-05-15T12:38:49.492Z,72.00
2023-05-15T12:41:16.410Z,72.20
2023-05-15T12:43:43.332Z,72.20
2023-05-15T12:46:15.561Z,72.10
2023-05-15T12:48:42.425Z,72.00
2023-05-15T12:51:09.515Z,71.90
2023-05-15T12:53:39.533Z,71.70
2023-05-15T12:56:07.304Z,71.30
2023-05-15T12:58:34.289Z,71.20
2023-05-15T13:01:04.278Z,71.50
2023-05-15T13:03:31.946Z,71.60
2023-05-15T13:05:59.002Z,71.40
2023-05-15T13:08:26.032Z,71.60
2023-05-15T13:10:57.902Z,71.20
2023-05-15T13:13:24.882Z,70.50
2023-05-15T13:15:53.620Z,70.00
2023-05-15T13:18:20.530Z,69.40
2023-05-15T13:20:49.619Z,69.20
2023-05-15T13:23:19.848Z,68.90
2023-05-15T13:25:50.151Z,68.60
2023-05-15T13:28:17.186Z,69.00
2023-05-15T13:30:44.043Z,68.80
2023-05-15T13:33:12.780Z,68.80
2023-05-15T13:35:41.297Z,68.50
2023-05-15T13:38:11.183Z,68.40
2023-05-15T13:40:38.916Z,68.20
2023-05-15T13:43:08.609Z,68.20
2023-05-15T13:45:36.916Z,68.50
2023-05-15T13:48:04.323Z,68.80
2023-05-15T13:50:31.134Z,68.80
2023-05-15T13:52:57.910Z,69.00
2023-05-15T13:55:34.764Z,69.20
2023-05-15T13:58:01.736Z,69.30
2023-05-15T14:00:28.536Z,69.60
2023-05-15T14:02:55.537Z,69.70
2023-05-15T14:05:22.567Z,69.60
2023-05-15T14:07:49.431Z,69.60
2023-05-15T14:10:16.147Z,69.70
2023-05-15T14:12:43.601Z,69.70
2023-05-15T14:15:11.946Z,69.90
2023-05-15T14:17:39.720Z,70.00
2023-05-15T14:20:07.707Z,70.20
2023-05-15T14:22:34.549Z,69.90
2023-05-15T14:25:01.818Z,69.40
2023-05-15T14:27:31.711Z,69.20
2023-05-15T14:29:58.709Z,69.20
2023-05-15T14:32:25.620Z,69.20
2023-05-15T14:34:52.465Z,69.00
2023-05-15T14:37:19.750Z,69.00
2023-05-15T14:39:46.555Z,68.80
2023-05-15T14:42:13.322Z,68.70
2023-05-15T14:44:40.352Z,68.60
2023-05-15T14:47:12.943Z,68.50
2023-05-15T14:49:40.560Z,68.50
2023-05-15T14:52:09.416Z,68.40
2023-05-15T14:54:37.536Z,68.40
2023-05-15T14:57:04.556Z,68.50
2023-05-15T14:59:31.526Z,67.80
2023-05-15T15:01:58.423Z,67.70
2023-05-15T15:04:26.874Z,67.40
2023-05-15T15:06:57.066Z,67.50
2023-05-15T15:09:25.627Z,67.60
2023-05-15T15:11:56.518Z,68.00
2023-05-15T15:14:23.338Z,68.20
2023-05-15T15:16:50.594Z,68.20
2023-05-15T15:19:19.876Z,68.40
2023-05-15T15:21:47.238Z,68.50
2023-05-15T15:24:14.372Z,68.50
2023-05-15T15:26:41.469Z,68.70
2023-05-15T15:29:08.449Z,68.50
2023-05-15T15:31:35.468Z,68.60
2023-05-15T15:34:05.374Z,68.70
2023-05-15T15:36:32.933Z,68.70
2023-05-15T15:38:59.705Z,68.70
2023-05-15T15:41:26.514Z,68.80
2023-05-15T15:43:53.869Z,69.00
2023-05-15T15:46:20.842Z,68.80
2023-05-15T15:48:48.991Z,68.70
2023-05-15T15:51:16.299Z,68.70
2023-05-15T15:53:43.038Z,68.90
2023-05-15T15:56:09.814Z,68.90
2023-05-15T15:58:36.661Z,69.10
2023-05-15T16:01:03.761Z,69.40
2023-05-15T16:03:31.475Z,69.50
2023-05-15T16:06:00.195Z,69.70
2023-05-15T16:08:27.464Z,69.80
2023-05-15T16:10:55.046Z,70.00
2023-05-15T16:13:21.927Z,70.30
2023-05-15T16:15:48.849Z,70.30
2023-05-15T16:18:15.660Z,70.30
2023-05-15T16:20:42.615Z,70.10
2023-05-15T16:23:11.648Z,70.00
2023-05-15T16:25:38.518Z,70.10
2023-05-15T16:28:05.504Z,70.20
2023-05-15T16:30:44.815Z,70.30
2023-05-15T16:33:16.127Z,70.40
2023-05-15T16:35:42.929Z,70.30
2023-05-15T16:38:09.709Z,70.40
2023-05-15T16:40:36.512Z,70.30
2023-05-15T16:43:03.288Z,70.40
2023-05-15T16:45:32.665Z,70.50
2023-05-15T16:47:59.490Z,70.60
2023-05-15T16:50:26.750Z,70.80
2023-05-15T16:52:53.866Z,70.70
2023-05-15T16:55:20.835Z,70.70
2023-05-15T16:57:47.763Z,70.70
2023-05-15T17:00:16.072Z,70.90
2023-05-15T17:02:43.092Z,71.10
2023-05-15T17:05:11.516Z,71.20
2023-05-15T17:07:38.901Z,71.60
2023-05-15T17:10:07.073Z,71.70
2023-05-15T17:12:34.048Z,71.90
2023-05-15T17:15:01.010Z,72.20
2023-05-15T17:17:28.431Z,72.60
2023-05-15T17:19:56.094Z,72.70
2023-05-15T17:22:23.599Z,73.00
2023-05-15T17:24:52.314Z,73.00
2023-05-15T17:27:19.780Z,73.30
2023-05-15T17:29:47.863Z,73.40
2023-05-15T17:32:16.409Z,73.60
2023-05-15T17:34:43.702Z,73.60
2023-05-15T17:37:11.036Z,73.80
2023-05-15T17:39:38.093Z,73.90
2023-05-15T17:42:05.510Z,73.90
2023-05-15T17:44:32.339Z,73.90
2023-05-15T17:47:00.032Z,74.20
2023-05-15T17:49:27.094Z,74.30
2023-05-15T17:51:54.223Z,74.30
2023-05-15T17:54:21.090Z,74.40
2023-05-15T17:56:48.581Z,74.50
2023-05-15T17:59:15.642Z,74.30
2023-05-15T18:01:42.641Z,74.40
2023-05-15T18:04:09.749Z,74.60
2023-05-15T18:06:39.053Z,74.70
2023-05-15T18:09:05.847Z,74.80
2023-05-15T18:11:32.712Z,74.80
2023-05-15T18:14:02.185Z,75.60
2023-05-15T18:16:29.913Z,74.90
2023-05-15T18:18:57.001Z,75.00
2023-05-15T18:21:24.233Z,74.90
2023-05-15T18:23:51.033Z,75.10
2023-05-15T18:26:17.993Z,75.20
2023-05-15T18:28:44.761Z,75.30
2023-05-15T18:31:11.940Z,75.50
2023-05-15T18:33:40.597Z,75.50
2023-05-15T18:36:07.689Z,75.50
2023-05-15T18:38:34.860Z,75.30
2023-05-15T18:41:01.751Z,75.30
2023-05-15T18:43:28.708Z,75.40
2023-05-15T18:45:55.673Z,75.50
2023-05-15T18:48:22.523Z,75.60
2023-05-15T18:50:49.380Z,75.60
2023-05-15T18:53:16.429Z,75.60
2023-05-15T18:55:43.320Z,75.60
2023-05-15T18:58:10.107Z,75.60
2023-05-15T19:00:39.022Z,75.60
2023-05-15T19:03:08.464Z,75.60
2023-05-15T19:05:35.668Z,75.50
2023-05-15T19:08:03.232Z,75.50
2023-05-15T19:10:30.678Z,75.60
2023-05-15T19:12:58.497Z,75.50
2023-05-15T19:15:25.794Z,75.40
2023-05-15T19:17:52.901Z,75.40
2023-05-15T19:20:20.267Z,75.40
2023-05-15T19:22:47.246Z,75.40
2023-05-15T19:25:14.085Z,75.40
2023-05-15T19:27:41.337Z,75.40
2023-05-15T19:30:09.477Z,75.30
2023-05-15T19:32:36.806Z,75.30
2023-05-15T19:35:03.915Z,75.50
2023-05-15T19:37:30.713Z,75.50
2023-05-15T19:39:57.471Z,75.80
2023-05-15T19:42:24.268Z,75.70
2023-05-15T19:44:51.036Z,75.80
2023-05-15T19:47:17.777Z,75.80
2023-05-15T19:49:44.505Z,76.00
2023-05-15T19:52:11.233Z,76.00
2023-05-15T19:54:37.914Z,76.00
2023-05-15T19:57:04.989Z,76.00
2023-05-15T19:59:31.822Z,76.10
2023-05-15T20:01:58.754Z,76.10
2023-05-15T20:04:26.032Z,76.20
2023-05-15T20:06:53.877Z,76.10
2023-05-15T20:09:20.704Z,76.30
2023-05-15T20:11:47.512Z,76.40
2023-05-15T20:14:15.244Z,77.30
2023-05-15T20:16:42.221Z,76.60
2023-05-15T20:19:11.030Z,76.80
2023-05-15T20:21:38.939Z,76.70
2023-05-15T20:24:06.883Z,76.80
2023-05-15T20:26:36.059Z,77.00
2023-05-15T20:29:03.658Z,77.00
2023-05-15T20:31:30.582Z,77.10
2023-05-15T20:33:58.889Z,76.90
2023-05-15T20:36:26.165Z,77.00
2023-05-15T20:38:53.116Z,76.90
2023-05-15T20:41:22.886Z,76.90
2023-05-15T20:43:50.239Z,77.00
2023-05-15T20:46:17.135Z,77.00
2023-05-15T20:48:47.106Z,76.80
2023-05-15T20:51:14.031Z,76.90
2023-05-15T20:53:40.881Z,76.80
2023-05-15T20:56:07.686Z,76.80
2023-05-15T20:58:34.805Z,76.80
2023-05-15T21:01:01.691Z,77.00
2023-05-15T21:03:29.497Z,77.70
2023-05-15T21:05:57.558Z,76.80
2023-05-15T21:08:24.473Z,76.80
2023-05-15T21:10:53.185Z,76.80
2023-05-15T21:13:20.036Z,76.80
2023-05-15T21:15:47.025Z,76.80
2023-05-15T21:18:17.034Z,76.70
2023-05-15T21:20:46.415Z,76.60
2023-05-15T21:23:13.547Z,76.60
2023-05-15T21:25:42.771Z,76.50
2023-05-15T21:28:10.258Z,76.60
2023-05-15T21:30:37.103Z,76.50
2023-05-15T21:33:04.153Z,76.60
2023-05-15T21:35:31.950Z,76.50
2023-05-15T21:37:58.918Z,76.40
2023-05-15T21:40:25.936Z,76.40
2023-05-15T21:42:54.678Z,76.40
2023-05-15T21:45:21.457Z,76.40
2023-05-15T21:47:48.489Z,76.40
2023-05-15T21:50:15.452Z,77.20
2023-05-15T21:52:43.480Z,76.40
2023-05-15T21:55:10.691Z,76.50
2023-05-15T21:57:37.422Z,76.50
2023-05-15T22:00:09.814Z,76.50
2023-05-15T22:02:37.029Z,76.50
2023-05-15T22:05:04.205Z,76.50
2023-05-15T22:07:30.953Z,76.50
2023-05-15T22:09:57.735Z,76.50
2023-05-15T22:12:24.597Z,76.50
2023-05-15T22:14:58.961Z,76.50
2023-05-15T22:17:29.045Z,76.40
2023-05-15T22:20:06.489Z,76.20
2023-05-15T22:22:35.116Z,76.20
2023-05-15T22:25:02.228Z,76.30
2023-05-15T22:27:29.071Z,76.30
2023-05-15T22:29:55.971Z,76.30
2023-05-15T22:32:23.134Z,76.30
2023-05-15T22:34:50.008Z,76.30
2023-05-15T22:37:16.902Z,76.20
2023-05-15T22:39:44.033Z,76.10
2023-05-15T22:42:10.722Z,76.10
2023-05-15T22:44:37.520Z,76.00
2023-05-15T22:47:04.406Z,75.90
2023-05-15T22:49:31.526Z,75.80
2023-05-15T22:51:58.788Z,75.80
2023-05-15T22:54:25.713Z,75.80
2023-05-15T22:56:53.487Z,75.70
2023-05-15T22:59:21.195Z,75.60
2023-05-15T23:01:49.361Z,75.60
2023-05-15T23:04:17.283Z,75.50
2023-05-15T23:06:44.415Z,75.50
2023-05-15T23:09:11.789Z,75.50
2023-05-15T23:11:38.894Z,75.50
2023-05-15T23:14:05.789Z,75.30
2023-05-15T23:16:32.478Z,75.30
2023-05-15T23:18:59.610Z,75.30
2023-05-15T23:21:28.273Z,75.30
2023-05-15T23:23:55.112Z,75.30
2023-05-15T23:26:22.139Z,75.30
2023-05-15T23:28:48.919Z,75.30
2023-05-15T23:31:20.805Z,75.40
2023-05-15T23:33:49.674Z,75.30
2023-05-15T23:36:16.631Z,75.30
2023-05-15T23:38:45.719Z,75.30
2023-05-15T23:41:12.605Z,75.30
2023-05-15T23:43:41.722Z,75.30
2023-05-15T23:46:08.513Z,75.20
2023-05-15T23:48:36.013Z,75.10
2023-05-15T23:51:03.494Z,75.10
2023-05-15T23:53:31.228Z,75.10
2023-05-15T23:55:57.945Z,75.10
2023-05-15T23:58:25.006Z,75.00
